Terminal Aerodrome Forecast
Issued by NWS

Home | Current Version | Previous Version | Text Only | Print | Product List | Glossary On
Versions: 1 2 3 4 5 6 7 8 9 10 11 12 13 14 15 16
000
FTUS46 KMFR 240500 RRA
TAFRBG
TAF
KRBG 240542Z 2406/2506 00000KT P6SM FEW050 BKN150
     FM240900 00000KT P6SM VCSH BKN020 BKN050 BKN080
     FM241200 00000KT 4SM -SHRA BR SCT010 BKN020 BKN050
     FM241500 00000KT 3SM -RA BR BKN008 BKN025 OVC050
     FM242000 VRB03KT P6SM -RA SCT020 BKN050 OVC080
     FM242200 VRB03KT P6SM FEW025 BKN060=

USA.gov is the U.S. government's official web portal to all federal, state and local government web resources and services.